Fresno Yosemite International Airport
KFAT : now visible

Airfield :











YOU CAN JOIN US ON...

 
LOGIN :

Register | Disclaimer

   EN    FR    IT 

 









Legend :    VFR   Marginal VFR   IFR   Intensive IFR   Very Intensive IFR
Visi :
Ceiling :
>= 8 km
>= 3000ft
5 to 8 km
1000 to 3000 ft
1500m to 5 km
500 to 1000 ft
800 to 1500m
200 to 500 ft
< 800m
< 200 ft
Symbols :   Thunderstorms  Fog  Heavy snow  Heavy precipitations  Wind > 20 kt






- Airport Elevation : 336 ft
- IATA code : FAT


KFAT - Fresno Yosemite International

CURRENT METAR :
  • 040653Z 09009KT 9SM OVC060 13/12 A3001 RMK AO2 RAE49 SLP161 P0004 T01280117 $

EXPIRED METARs :
  • 040553Z 12006KT 3SM -RA BR BKN060 OVC075 13/12 A3002 RMK AO2 SLP165 P0009 60015 T01280117 10133 20122 53009 $
  • 040453Z 11005KT 5SM -RA BR OVC070 13/12 A3000 RMK AO2 SLP158 P0003 T01280117 $

TAF KFAT
Valid from the 04 at 06:00 until the 05 at 06:00 UTC


040520Z 0406/0506 11007KT 5SM -SHRA BR OVC070
FM041100 VRB04KT 5SM RA BR OVC015
FM041300 VRB04KT 4SM BR VCSH BKN010
PROB30 0415/0417 2SM -RA BR OVC004
FM042100 VRB04KT P6SM SCT035
KZOA FIR / North America



MET'MAP, your aeronautical weather chart ! - Copyright ORBIFLY December 2007 - Disclaimer

ORBIFLY MET'MAP TEAM :

Programming & Development : Alexandra Zaïnal
Original concept : Baudouin d'Aumeries
Technical & hardware support : Manuel Goepfert
Assistance : Marc-Olivier Méhu




SOURCES & CREDITS :

   NOAA       Earth
Advisory